sensor_id;sensor_type;location;lat;lon;timestamp;P1;durP1;ratioP1;P2;durP2;ratioP2
16115;SDS011;8162;47.104;15.432;2023-04-06T00:00:10;4.87;;;3.73;;
16115;SDS011;8162;47.104;15.432;2023-04-06T00:03:12;6.07;;;3.80;;
16115;SDS011;8162;47.104;15.432;2023-04-06T00:06:13;4.83;;;3.57;;
16115;SDS011;8162;47.104;15.432;2023-04-06T00:09:14;5.50;;;3.53;;
16115;SDS011;8162;47.104;15.432;2023-04-06T00:12:15;4.80;;;3.53;;
16115;SDS011;8162;47.104;15.432;2023-04-06T00:15:16;7.87;;;3.70;;
16115;SDS011;8162;47.104;15.432;2023-04-06T00:18:18;4.50;;;3.40;;
16115;SDS011;8162;47.104;15.432;2023-04-06T00:21:19;5.77;;;3.30;;
16115;SDS011;8162;47.104;15.432;2023-04-06T00:24:20;5.33;;;3.87;;
16115;SDS011;8162;47.104;15.432;2023-04-06T00:27:21;3.50;;;3.20;;
16115;SDS011;8162;47.104;15.432;2023-04-06T00:30:22;5.93;;;4.00;;
16115;SDS011;8162;47.104;15.432;2023-04-06T00:33:23;4.73;;;3.10;;
16115;SDS011;8162;47.104;15.432;2023-04-06T00:36:24;6.13;;;3.93;;
16115;SDS011;8162;47.104;15.432;2023-04-06T00:39:26;5.53;;;3.63;;
16115;SDS011;8162;47.104;15.432;2023-04-06T00:42:27;5.03;;;3.67;;
16115;SDS011;8162;47.104;15.432;2023-04-06T00:45:28;4.37;;;2.93;;
16115;SDS011;8162;47.104;15.432;2023-04-06T00:48:29;4.90;;;3.33;;
16115;SDS011;8162;47.104;15.432;2023-04-06T00:51:31;6.10;;;3.33;;
16115;SDS011;8162;47.104;15.432;2023-04-06T00:54:32;4.17;;;3.30;;
16115;SDS011;8162;47.104;15.432;2023-04-06T00:57:33;5.87;;;3.93;;
16115;SDS011;8162;47.104;15.432;2023-04-06T01:00:34;3.67;;;3.10;;
16115;SDS011;8162;47.104;15.432;2023-04-06T01:03:35;6.27;;;3.10;;
16115;SDS011;8162;47.104;15.432;2023-04-06T01:06:36;4.73;;;3.40;;
16115;SDS011;8162;47.104;15.432;2023-04-06T01:09:37;4.70;;;3.20;;
16115;SDS011;8162;47.104;15.432;2023-04-06T01:12:41;4.40;;;3.40;;
16115;SDS011;8162;47.104;15.432;2023-04-06T01:15:42;4.70;;;3.40;;
16115;SDS011;8162;47.104;15.432;2023-04-06T01:18:43;4.90;;;3.47;;
16115;SDS011;8162;47.104;15.432;2023-04-06T01:21:44;7.60;;;3.40;;
16115;SDS011;8162;47.104;15.432;2023-04-06T01:24:45;5.17;;;3.47;;
16115;SDS011;8162;47.104;15.432;2023-04-06T01:27:46;4.03;;;3.13;;
16115;SDS011;8162;47.104;15.432;2023-04-06T01:30:47;3.20;;;2.50;;
16115;SDS011;8162;47.104;15.432;2023-04-06T01:33:48;5.37;;;3.27;;
16115;SDS011;8162;47.104;15.432;2023-04-06T01:36:50;4.13;;;3.40;;
16115;SDS011;8162;47.104;15.432;2023-04-06T01:39:51;7.17;;;3.70;;
16115;SDS011;8162;47.104;15.432;2023-04-06T01:42:53;5.13;;;3.20;;
16115;SDS011;8162;47.104;15.432;2023-04-06T01:45:54;3.10;;;2.80;;
16115;SDS011;8162;47.104;15.432;2023-04-06T01:48:55;7.57;;;3.87;;
16115;SDS011;8162;47.104;15.432;2023-04-06T01:51:56;6.37;;;3.80;;
16115;SDS011;8162;47.104;15.432;2023-04-06T01:54:57;8.97;;;4.13;;
16115;SDS011;8162;47.104;15.432;2023-04-06T01:57:58;5.00;;;3.80;;
16115;SDS011;8162;47.104;15.432;2023-04-06T02:00:59;7.10;;;3.70;;
16115;SDS011;8162;47.104;15.432;2023-04-06T02:04:00;5.50;;;3.77;;
16115;SDS011;8162;47.104;15.432;2023-04-06T02:07:01;5.77;;;3.40;;
16115;SDS011;8162;47.104;15.432;2023-04-06T02:10:02;7.57;;;3.50;;
16115;SDS011;8162;47.104;15.432;2023-04-06T02:13:04;6.17;;;3.20;;
16115;SDS011;8162;47.104;15.432;2023-04-06T02:16:05;3.90;;;3.50;;
16115;SDS011;8162;47.104;15.432;2023-04-06T02:19:06;4.20;;;2.93;;
16115;SDS011;8162;47.104;15.432;2023-04-06T02:22:07;6.13;;;3.27;;
16115;SDS011;8162;47.104;15.432;2023-04-06T02:25:08;5.53;;;3.23;;
16115;SDS011;8162;47.104;15.432;2023-04-06T02:28:09;4.47;;;3.40;;
16115;SDS011;8162;47.104;15.432;2023-04-06T02:31:10;5.87;;;3.70;;
16115;SDS011;8162;47.104;15.432;2023-04-06T02:34:11;5.67;;;3.70;;
16115;SDS011;8162;47.104;15.432;2023-04-06T02:37:17;5.87;;;3.17;;
16115;SDS011;8162;47.104;15.432;2023-04-06T02:40:18;4.27;;;3.17;;
16115;SDS011;8162;47.104;15.432;2023-04-06T02:43:19;5.10;;;3.80;;
16115;SDS011;8162;47.104;15.432;2023-04-06T02:46:20;7.07;;;3.67;;
16115;SDS011;8162;47.104;15.432;2023-04-06T02:49:21;6.00;;;3.27;;
16115;SDS011;8162;47.104;15.432;2023-04-06T02:52:22;5.57;;;3.80;;
16115;SDS011;8162;47.104;15.432;2023-04-06T02:55:23;3.77;;;3.17;;
16115;SDS011;8162;47.104;15.432;2023-04-06T02:58:24;4.63;;;3.23;;
16115;SDS011;8162;47.104;15.432;2023-04-06T03:01:26;6.33;;;3.70;;
16115;SDS011;8162;47.104;15.432;2023-04-06T03:04:27;5.20;;;3.60;;
16115;SDS011;8162;47.104;15.432;2023-04-06T03:07:28;5.07;;;3.53;;
16115;SDS011;8162;47.104;15.432;2023-04-06T03:10:29;6.43;;;4.23;;
16115;SDS011;8162;47.104;15.432;2023-04-06T03:13:30;5.70;;;3.17;;
16115;SDS011;8162;47.104;15.432;2023-04-06T03:16:31;5.53;;;3.30;;
16115;SDS011;8162;47.104;15.432;2023-04-06T03:19:32;4.47;;;3.40;;
16115;SDS011;8162;47.104;15.432;2023-04-06T03:22:33;5.30;;;3.70;;
16115;SDS011;8162;47.104;15.432;2023-04-06T03:25:34;3.77;;;3.33;;
16115;SDS011;8162;47.104;15.432;2023-04-06T03:28:35;5.03;;;3.10;;
16115;SDS011;8162;47.104;15.432;2023-04-06T03:31:36;5.73;;;3.50;;
16115;SDS011;8162;47.104;15.432;2023-04-06T03:34:38;6.23;;;3.70;;
16115;SDS011;8162;47.104;15.432;2023-04-06T03:37:39;4.33;;;3.83;;
16115;SDS011;8162;47.104;15.432;2023-04-06T03:40:40;4.17;;;3.50;;
16115;SDS011;8162;47.104;15.432;2023-04-06T03:43:42;6.17;;;3.40;;
16115;SDS011;8162;47.104;15.432;2023-04-06T03:46:43;4.37;;;3.40;;
16115;SDS011;8162;47.104;15.432;2023-04-06T03:49:44;6.57;;;3.97;;
16115;SDS011;8162;47.104;15.432;2023-04-06T03:52:45;5.77;;;3.20;;
16115;SDS011;8162;47.104;15.432;2023-04-06T03:55:46;4.60;;;3.27;;
16115;SDS011;8162;47.104;15.432;2023-04-06T03:58:47;3.70;;;3.17;;
16115;SDS011;8162;47.104;15.432;2023-04-06T04:01:51;4.03;;;3.30;;
16115;SDS011;8162;47.104;15.432;2023-04-06T04:04:52;4.77;;;3.57;;
16115;SDS011;8162;47.104;15.432;2023-04-06T04:07:53;3.87;;;3.13;;
16115;SDS011;8162;47.104;15.432;2023-04-06T04:10:55;4.20;;;3.40;;
16115;SDS011;8162;47.104;15.432;2023-04-06T04:13:56;4.47;;;3.20;;
16115;SDS011;8162;47.104;15.432;2023-04-06T04:16:57;4.33;;;3.70;;
16115;SDS011;8162;47.104;15.432;2023-04-06T04:19:58;4.90;;;3.17;;
16115;SDS011;8162;47.104;15.432;2023-04-06T04:22:59;4.93;;;2.93;;
16115;SDS011;8162;47.104;15.432;2023-04-06T04:26:00;5.87;;;3.27;;
16115;SDS011;8162;47.104;15.432;2023-04-06T04:29:01;6.33;;;3.47;;
16115;SDS011;8162;47.104;15.432;2023-04-06T04:32:02;6.50;;;3.97;;
16115;SDS011;8162;47.104;15.432;2023-04-06T04:35:03;4.13;;;3.30;;
16115;SDS011;8162;47.104;15.432;2023-04-06T04:38:04;5.43;;;3.60;;
16115;SDS011;8162;47.104;15.432;2023-04-06T04:41:06;4.47;;;3.30;;
16115;SDS011;8162;47.104;15.432;2023-04-06T04:44:07;4.33;;;3.30;;
16115;SDS011;8162;47.104;15.432;2023-04-06T04:47:08;5.37;;;3.63;;
16115;SDS011;8162;47.104;15.432;2023-04-06T04:50:09;4.43;;;3.30;;
16115;SDS011;8162;47.104;15.432;2023-04-06T04:53:10;4.33;;;3.93;;
16115;SDS011;8162;47.104;15.432;2023-04-06T04:56:11;3.67;;;3.20;;
16115;SDS011;8162;47.104;15.432;2023-04-06T04:59:12;4.97;;;3.60;;
16115;SDS011;8162;47.104;15.432;2023-04-06T05:02:13;5.90;;;3.67;;
16115;SDS011;8162;47.104;15.432;2023-04-06T05:05:14;4.40;;;3.40;;
16115;SDS011;8162;47.104;15.432;2023-04-06T05:08:16;7.30;;;3.50;;
16115;SDS011;8162;47.104;15.432;2023-04-06T05:11:17;5.50;;;4.27;;
16115;SDS011;8162;47.104;15.432;2023-04-06T05:14:18;5.00;;;3.60;;
16115;SDS011;8162;47.104;15.432;2023-04-06T05:17:20;7.87;;;3.93;;
16115;SDS011;8162;47.104;15.432;2023-04-06T05:20:21;5.00;;;3.37;;
16115;SDS011;8162;47.104;15.432;2023-04-06T05:23:22;4.77;;;3.50;;
16115;SDS011;8162;47.104;15.432;2023-04-06T05:26:23;4.10;;;3.23;;
16115;SDS011;8162;47.104;15.432;2023-04-06T05:29:24;4.23;;;3.47;;
16115;SDS011;8162;47.104;15.432;2023-04-06T05:32:26;5.97;;;3.70;;
16115;SDS011;8162;47.104;15.432;2023-04-06T05:35:28;5.07;;;3.93;;
16115;SDS011;8162;47.104;15.432;2023-04-06T05:38:29;7.33;;;4.17;;
16115;SDS011;8162;47.104;15.432;2023-04-06T05:41:30;7.70;;;3.97;;
16115;SDS011;8162;47.104;15.432;2023-04-06T05:44:31;4.03;;;3.40;;
16115;SDS011;8162;47.104;15.432;2023-04-06T05:47:32;4.83;;;3.70;;
16115;SDS011;8162;47.104;15.432;2023-04-06T05:50:33;5.47;;;3.43;;
16115;SDS011;8162;47.104;15.432;2023-04-06T05:53:34;5.40;;;3.23;;
16115;SDS011;8162;47.104;15.432;2023-04-06T05:56:35;5.83;;;3.60;;
16115;SDS011;8162;47.104;15.432;2023-04-06T05:59:36;5.40;;;3.80;;
16115;SDS011;8162;47.104;15.432;2023-04-06T06:02:38;5.13;;;3.47;;
16115;SDS011;8162;47.104;15.432;2023-04-06T06:05:39;6.30;;;4.30;;
16115;SDS011;8162;47.104;15.432;2023-04-06T06:08:40;5.00;;;4.00;;
16115;SDS011;8162;47.104;15.432;2023-04-06T06:11:41;6.43;;;4.37;;
16115;SDS011;8162;47.104;15.432;2023-04-06T06:14:42;10.57;;;4.47;;
16115;SDS011;8162;47.104;15.432;2023-04-06T06:17:43;5.10;;;4.10;;
16115;SDS011;8162;47.104;15.432;2023-04-06T06:20:45;4.97;;;3.63;;
16115;SDS011;8162;47.104;15.432;2023-04-06T06:23:46;5.97;;;4.50;;
16115;SDS011;8162;47.104;15.432;2023-04-06T06:26:49;6.50;;;3.80;;
16115;SDS011;8162;47.104;15.432;2023-04-06T06:29:50;9.43;;;3.87;;
16115;SDS011;8162;47.104;15.432;2023-04-06T06:32:51;7.17;;;4.23;;
16115;SDS011;8162;47.104;15.432;2023-04-06T06:35:52;6.00;;;4.07;;
16115;SDS011;8162;47.104;15.432;2023-04-06T06:38:53;6.20;;;4.30;;
16115;SDS011;8162;47.104;15.432;2023-04-06T06:41:54;6.07;;;4.60;;
16115;SDS011;8162;47.104;15.432;2023-04-06T06:44:55;8.53;;;4.77;;
16115;SDS011;8162;47.104;15.432;2023-04-06T06:47:56;6.23;;;4.57;;
16115;SDS011;8162;47.104;15.432;2023-04-06T06:50:57;8.83;;;4.27;;
16115;SDS011;8162;47.104;15.432;2023-04-06T06:53:58;8.20;;;4.43;;
16115;SDS011;8162;47.104;15.432;2023-04-06T06:56:59;7.07;;;4.70;;
16115;SDS011;8162;47.104;15.432;2023-04-06T07:00:00;9.00;;;4.70;;
16115;SDS011;8162;47.104;15.432;2023-04-06T07:03:01;4.63;;;3.80;;
16115;SDS011;8162;47.104;15.432;2023-04-06T07:06:03;6.67;;;4.63;;
16115;SDS011;8162;47.104;15.432;2023-04-06T07:09:04;6.43;;;4.50;;
16115;SDS011;8162;47.104;15.432;2023-04-06T07:12:05;11.33;;;5.23;;
16115;SDS011;8162;47.104;15.432;2023-04-06T07:15:06;8.10;;;4.60;;
16115;SDS011;8162;47.104;15.432;2023-04-06T07:18:07;6.50;;;4.20;;
16115;SDS011;8162;47.104;15.432;2023-04-06T07:21:08;8.47;;;5.50;;
16115;SDS011;8162;47.104;15.432;2023-04-06T07:24:09;6.73;;;4.40;;
16115;SDS011;8162;47.104;15.432;2023-04-06T07:27:10;8.07;;;4.60;;
16115;SDS011;8162;47.104;15.432;2023-04-06T07:30:11;7.10;;;4.03;;
16115;SDS011;8162;47.104;15.432;2023-04-06T07:33:13;8.40;;;4.40;;
16115;SDS011;8162;47.104;15.432;2023-04-06T07:36:14;6.73;;;4.77;;
16115;SDS011;8162;47.104;15.432;2023-04-06T07:39:15;5.80;;;4.30;;
16115;SDS011;8162;47.104;15.432;2023-04-06T07:42:16;7.33;;;4.50;;
16115;SDS011;8162;47.104;15.432;2023-04-06T07:45:17;6.37;;;3.63;;
16115;SDS011;8162;47.104;15.432;2023-04-06T07:48:18;6.33;;;3.83;;
16115;SDS011;8162;47.104;15.432;2023-04-06T07:51:19;4.67;;;3.37;;
16115;SDS011;8162;47.104;15.432;2023-04-06T07:54:20;5.27;;;4.03;;
16115;SDS011;8162;47.104;15.432;2023-04-06T07:57:21;5.47;;;3.40;;
16115;SDS011;8162;47.104;15.432;2023-04-06T08:00:22;5.73;;;3.60;;
16115;SDS011;8162;47.104;15.432;2023-04-06T08:03:23;6.40;;;3.37;;
16115;SDS011;8162;47.104;15.432;2023-04-06T08:06:25;3.50;;;3.20;;
16115;SDS011;8162;47.104;15.432;2023-04-06T08:09:26;6.50;;;3.87;;
16115;SDS011;8162;47.104;15.432;2023-04-06T08:12:27;9.33;;;3.93;;
16115;SDS011;8162;47.104;15.432;2023-04-06T08:15:28;2.77;;;2.50;;
16115;SDS011;8162;47.104;15.432;2023-04-06T08:18:30;4.50;;;2.50;;
16115;SDS011;8162;47.104;15.432;2023-04-06T08:21:31;6.47;;;3.63;;
16115;SDS011;8162;47.104;15.432;2023-04-06T08:24:32;5.20;;;3.30;;
16115;SDS011;8162;47.104;15.432;2023-04-06T08:27:33;4.13;;;2.87;;
16115;SDS011;8162;47.104;15.432;2023-04-06T08:30:34;4.33;;;3.33;;
16115;SDS011;8162;47.104;15.432;2023-04-06T08:33:36;4.97;;;3.40;;
16115;SDS011;8162;47.104;15.432;2023-04-06T08:36:39;3.57;;;2.60;;
16115;SDS011;8162;47.104;15.432;2023-04-06T08:39:40;5.67;;;3.43;;
16115;SDS011;8162;47.104;15.432;2023-04-06T08:42:45;4.50;;;3.10;;
16115;SDS011;8162;47.104;15.432;2023-04-06T08:45:48;5.33;;;3.10;;
16115;SDS011;8162;47.104;15.432;2023-04-06T08:48:49;5.63;;;3.03;;
16115;SDS011;8162;47.104;15.432;2023-04-06T08:51:51;5.63;;;2.87;;
16115;SDS011;8162;47.104;15.432;2023-04-06T08:54:52;4.80;;;2.70;;
16115;SDS011;8162;47.104;15.432;2023-04-06T08:57:53;4.63;;;3.40;;
16115;SDS011;8162;47.104;15.432;2023-04-06T09:00:55;3.83;;;2.50;;
16115;SDS011;8162;47.104;15.432;2023-04-06T09:03:57;3.13;;;2.50;;
16115;SDS011;8162;47.104;15.432;2023-04-06T09:06:58;4.30;;;2.83;;
16115;SDS011;8162;47.104;15.432;2023-04-06T09:10:00;5.93;;;3.40;;
16115;SDS011;8162;47.104;15.432;2023-04-06T09:13:05;4.37;;;2.70;;
16115;SDS011;8162;47.104;15.432;2023-04-06T09:16:06;3.67;;;2.30;;
16115;SDS011;8162;47.104;15.432;2023-04-06T09:19:08;3.67;;;2.73;;
16115;SDS011;8162;47.104;15.432;2023-04-06T09:22:09;5.80;;;2.63;;
16115;SDS011;8162;47.104;15.432;2023-04-06T09:25:17;4.07;;;3.07;;
16115;SDS011;8162;47.104;15.432;2023-04-06T09:28:19;5.53;;;3.20;;
16115;SDS011;8162;47.104;15.432;2023-04-06T09:31:24;4.70;;;3.00;;
16115;SDS011;8162;47.104;15.432;2023-04-06T09:34:25;3.10;;;2.60;;
16115;SDS011;8162;47.104;15.432;2023-04-06T09:37:27;5.07;;;3.37;;
16115;SDS011;8162;47.104;15.432;2023-04-06T09:40:28;2.97;;;2.67;;
16115;SDS011;8162;47.104;15.432;2023-04-06T09:43:30;3.63;;;2.60;;
16115;SDS011;8162;47.104;15.432;2023-04-06T09:46:33;3.90;;;2.83;;
16115;SDS011;8162;47.104;15.432;2023-04-06T09:49:34;4.87;;;2.67;;
16115;SDS011;8162;47.104;15.432;2023-04-06T09:52:56;3.90;;;2.70;;
16115;SDS011;8162;47.104;15.432;2023-04-06T09:55:57;4.70;;;2.60;;
16115;SDS011;8162;47.104;15.432;2023-04-06T09:59:01;4.50;;;2.67;;
16115;SDS011;8162;47.104;15.432;2023-04-06T10:02:04;5.37;;;2.63;;
16115;SDS011;8162;47.104;15.432;2023-04-06T10:05:08;3.20;;;2.53;;
16115;SDS011;8162;47.104;15.432;2023-04-06T10:08:11;5.13;;;2.73;;
16115;SDS011;8162;47.104;15.432;2023-04-06T10:11:12;2.90;;;2.57;;
16115;SDS011;8162;47.104;15.432;2023-04-06T10:14:13;4.03;;;2.90;;
16115;SDS011;8162;47.104;15.432;2023-04-06T10:17:14;2.87;;;2.43;;
16115;SDS011;8162;47.104;15.432;2023-04-06T10:20:17;3.30;;;2.50;;
16115;SDS011;8162;47.104;15.432;2023-04-06T10:23:26;5.33;;;2.83;;
16115;SDS011;8162;47.104;15.432;2023-04-06T10:26:30;3.73;;;2.63;;
16115;SDS011;8162;47.104;15.432;2023-04-06T10:29:47;4.07;;;2.60;;
16115;SDS011;8162;47.104;15.432;2023-04-06T10:32:51;3.83;;;2.50;;
16115;SDS011;8162;47.104;15.432;2023-04-06T10:35:52;4.07;;;2.53;;
16115;SDS011;8162;47.104;15.432;2023-04-06T10:38:55;3.00;;;2.40;;
16115;SDS011;8162;47.104;15.432;2023-04-06T10:41:57;3.10;;;1.90;;
16115;SDS011;8162;47.104;15.432;2023-04-06T10:45:07;5.10;;;2.67;;
16115;SDS011;8162;47.104;15.432;2023-04-06T10:48:15;2.57;;;2.00;;
16115;SDS011;8162;47.104;15.432;2023-04-06T10:51:17;2.57;;;2.13;;
16115;SDS011;8162;47.104;15.432;2023-04-06T10:54:18;3.03;;;2.20;;
16115;SDS011;8162;47.104;15.432;2023-04-06T10:57:27;2.40;;;2.17;;
16115;SDS011;8162;47.104;15.432;2023-04-06T11:00:29;2.37;;;1.73;;
16115;SDS011;8162;47.104;15.432;2023-04-06T11:03:30;2.57;;;1.80;;
16115;SDS011;8162;47.104;15.432;2023-04-06T11:06:32;2.27;;;1.80;;
16115;SDS011;8162;47.104;15.432;2023-04-06T11:09:33;2.57;;;1.93;;
16115;SDS011;8162;47.104;15.432;2023-04-06T11:12:36;3.00;;;1.83;;
16115;SDS011;8162;47.104;15.432;2023-04-06T11:15:37;2.20;;;1.77;;
16115;SDS011;8162;47.104;15.432;2023-04-06T11:18:46;3.93;;;2.07;;
16115;SDS011;8162;47.104;15.432;2023-04-06T11:21:47;1.63;;;1.50;;
16115;SDS011;8162;47.104;15.432;2023-04-06T11:24:48;1.73;;;1.57;;
16115;SDS011;8162;47.104;15.432;2023-04-06T11:27:49;2.30;;;1.70;;
16115;SDS011;8162;47.104;15.432;2023-04-06T11:30:51;3.47;;;2.53;;
16115;SDS011;8162;47.104;15.432;2023-04-06T11:33:56;2.27;;;1.77;;
16115;SDS011;8162;47.104;15.432;2023-04-06T11:36:58;2.13;;;1.93;;
16115;SDS011;8162;47.104;15.432;2023-04-06T11:39:59;3.00;;;1.80;;
16115;SDS011;8162;47.104;15.432;2023-04-06T11:43:00;2.43;;;1.50;;
16115;SDS011;8162;47.104;15.432;2023-04-06T11:46:02;2.00;;;1.40;;
16115;SDS011;8162;47.104;15.432;2023-04-06T11:49:03;2.40;;;1.73;;
16115;SDS011;8162;47.104;15.432;2023-04-06T11:52:14;3.67;;;1.90;;
16115;SDS011;8162;47.104;15.432;2023-04-06T11:55:16;2.93;;;1.93;;
16115;SDS011;8162;47.104;15.432;2023-04-06T11:58:17;2.97;;;1.67;;
16115;SDS011;8162;47.104;15.432;2023-04-06T12:01:18;2.23;;;1.50;;
16115;SDS011;8162;47.104;15.432;2023-04-06T12:04:19;3.23;;;1.87;;
16115;SDS011;8162;47.104;15.432;2023-04-06T12:07:20;1.87;;;1.70;;
16115;SDS011;8162;47.104;15.432;2023-04-06T12:10:22;2.00;;;1.57;;
16115;SDS011;8162;47.104;15.432;2023-04-06T12:13:22;2.77;;;1.50;;
16115;SDS011;8162;47.104;15.432;2023-04-06T12:16:23;2.43;;;1.50;;
16115;SDS011;8162;47.104;15.432;2023-04-06T12:19:24;1.87;;;1.63;;
16115;SDS011;8162;47.104;15.432;2023-04-06T12:22:25;2.10;;;1.50;;
16115;SDS011;8162;47.104;15.432;2023-04-06T12:25:26;2.33;;;1.40;;
16115;SDS011;8162;47.104;15.432;2023-04-06T12:28:27;2.50;;;1.60;;
16115;SDS011;8162;47.104;15.432;2023-04-06T12:31:28;2.00;;;1.67;;
16115;SDS011;8162;47.104;15.432;2023-04-06T12:34:29;1.83;;;1.30;;
16115;SDS011;8162;47.104;15.432;2023-04-06T12:37:30;2.83;;;1.70;;
16115;SDS011;8162;47.104;15.432;2023-04-06T12:40:31;1.53;;;1.43;;
16115;SDS011;8162;47.104;15.432;2023-04-06T12:43:37;1.30;;;1.20;;
16115;SDS011;8162;47.104;15.432;2023-04-06T12:46:39;2.47;;;1.60;;
16115;SDS011;8162;47.104;15.432;2023-04-06T12:49:40;2.37;;;1.63;;
16115;SDS011;8162;47.104;15.432;2023-04-06T12:52:41;2.70;;;1.63;;
16115;SDS011;8162;47.104;15.432;2023-04-06T12:55:42;1.97;;;1.50;;
16115;SDS011;8162;47.104;15.432;2023-04-06T12:58:43;2.87;;;1.50;;
16115;SDS011;8162;47.104;15.432;2023-04-06T13:01:44;1.60;;;1.37;;
16115;SDS011;8162;47.104;15.432;2023-04-06T13:04:45;1.60;;;1.50;;
16115;SDS011;8162;47.104;15.432;2023-04-06T13:07:46;2.00;;;1.50;;
16115;SDS011;8162;47.104;15.432;2023-04-06T13:10:47;2.20;;;1.30;;
16115;SDS011;8162;47.104;15.432;2023-04-06T13:13:49;1.70;;;1.13;;
16115;SDS011;8162;47.104;15.432;2023-04-06T13:16:49;2.07;;;1.30;;
16115;SDS011;8162;47.104;15.432;2023-04-06T13:19:51;1.60;;;1.33;;
16115;SDS011;8162;47.104;15.432;2023-04-06T13:22:52;1.50;;;1.40;;
16115;SDS011;8162;47.104;15.432;2023-04-06T13:25:59;2.57;;;1.80;;
16115;SDS011;8162;47.104;15.432;2023-04-06T13:29:01;1.57;;;1.47;;
16115;SDS011;8162;47.104;15.432;2023-04-06T13:32:02;1.10;;;1.07;;
16115;SDS011;8162;47.104;15.432;2023-04-06T13:35:03;3.03;;;1.60;;
16115;SDS011;8162;47.104;15.432;2023-04-06T13:38:04;3.07;;;1.60;;
16115;SDS011;8162;47.104;15.432;2023-04-06T13:41:05;1.50;;;1.33;;
16115;SDS011;8162;47.104;15.432;2023-04-06T13:44:06;1.40;;;1.30;;
16115;SDS011;8162;47.104;15.432;2023-04-06T13:47:07;3.17;;;1.47;;
16115;SDS011;8162;47.104;15.432;2023-04-06T13:50:08;1.50;;;1.30;;
16115;SDS011;8162;47.104;15.432;2023-04-06T13:53:08;1.70;;;1.60;;
16115;SDS011;8162;47.104;15.432;2023-04-06T13:56:09;2.00;;;1.43;;
16115;SDS011;8162;47.104;15.432;2023-04-06T13:59:10;2.17;;;1.40;;
16115;SDS011;8162;47.104;15.432;2023-04-06T14:02:11;1.30;;;1.20;;
16115;SDS011;8162;47.104;15.432;2023-04-06T14:05:11;1.30;;;1.17;;
16115;SDS011;8162;47.104;15.432;2023-04-06T14:08:12;1.53;;;1.40;;
16115;SDS011;8162;47.104;15.432;2023-04-06T14:11:13;1.40;;;1.30;;
16115;SDS011;8162;47.104;15.432;2023-04-06T14:14:15;1.47;;;1.30;;
16115;SDS011;8162;47.104;15.432;2023-04-06T14:17:16;1.47;;;1.37;;
16115;SDS011;8162;47.104;15.432;2023-04-06T14:20:17;1.63;;;1.00;;
16115;SDS011;8162;47.104;15.432;2023-04-06T14:23:17;3.50;;;1.17;;
16115;SDS011;8162;47.104;15.432;2023-04-06T14:26:18;1.53;;;1.23;;
16115;SDS011;8162;47.104;15.432;2023-04-06T14:29:19;1.80;;;1.40;;
16115;SDS011;8162;47.104;15.432;2023-04-06T14:32:20;1.63;;;1.10;;
16115;SDS011;8162;47.104;15.432;2023-04-06T14:35:21;1.80;;;1.37;;
16115;SDS011;8162;47.104;15.432;2023-04-06T14:38:22;2.83;;;1.20;;
16115;SDS011;8162;47.104;15.432;2023-04-06T14:41:23;2.00;;;1.13;;
16115;SDS011;8162;47.104;15.432;2023-04-06T14:44:25;2.43;;;1.30;;
16115;SDS011;8162;47.104;15.432;2023-04-06T14:47:26;1.63;;;1.40;;
16115;SDS011;8162;47.104;15.432;2023-04-06T14:50:27;1.30;;;1.20;;
16115;SDS011;8162;47.104;15.432;2023-04-06T14:53:28;2.90;;;1.63;;
16115;SDS011;8162;47.104;15.432;2023-04-06T14:56:29;2.10;;;1.63;;
16115;SDS011;8162;47.104;15.432;2023-04-06T14:59:31;1.77;;;1.47;;
16115;SDS011;8162;47.104;15.432;2023-04-06T15:02:32;1.23;;;1.00;;
16115;SDS011;8162;47.104;15.432;2023-04-06T15:05:34;2.43;;;1.30;;
16115;SDS011;8162;47.104;15.432;2023-04-06T15:08:35;2.40;;;1.30;;
16115;SDS011;8162;47.104;15.432;2023-04-06T15:11:36;2.13;;;1.33;;
16115;SDS011;8162;47.104;15.432;2023-04-06T15:14:37;1.30;;;1.20;;
16115;SDS011;8162;47.104;15.432;2023-04-06T15:17:38;1.40;;;1.30;;
16115;SDS011;8162;47.104;15.432;2023-04-06T15:20:39;2.27;;;1.53;;
16115;SDS011;8162;47.104;15.432;2023-04-06T15:23:41;1.97;;;1.17;;
16115;SDS011;8162;47.104;15.432;2023-04-06T15:26:42;1.37;;;1.20;;
16115;SDS011;8162;47.104;15.432;2023-04-06T15:29:45;3.10;;;1.47;;
16115;SDS011;8162;47.104;15.432;2023-04-06T15:32:57;1.40;;;1.27;;
16115;SDS011;8162;47.104;15.432;2023-04-06T15:36:02;2.60;;;1.60;;
16115;SDS011;8162;47.104;15.432;2023-04-06T15:39:03;3.07;;;1.60;;
16115;SDS011;8162;47.104;15.432;2023-04-06T15:42:08;1.67;;;1.57;;
16115;SDS011;8162;47.104;15.432;2023-04-06T15:45:09;1.60;;;1.33;;
16115;SDS011;8162;47.104;15.432;2023-04-06T15:48:10;2.70;;;1.80;;
16115;SDS011;8162;47.104;15.432;2023-04-06T15:51:11;1.47;;;1.20;;
16115;SDS011;8162;47.104;15.432;2023-04-06T15:54:12;1.77;;;1.20;;
16115;SDS011;8162;47.104;15.432;2023-04-06T15:57:13;2.57;;;1.60;;
16115;SDS011;8162;47.104;15.432;2023-04-06T16:00:15;1.93;;;1.27;;
16115;SDS011;8162;47.104;15.432;2023-04-06T16:03:16;2.60;;;1.57;;
16115;SDS011;8162;47.104;15.432;2023-04-06T16:06:17;3.00;;;1.63;;
16115;SDS011;8162;47.104;15.432;2023-04-06T16:09:18;1.70;;;1.33;;
16115;SDS011;8162;47.104;15.432;2023-04-06T16:12:19;1.57;;;1.47;;
16115;SDS011;8162;47.104;15.432;2023-04-06T16:15:20;2.23;;;1.37;;
16115;SDS011;8162;47.104;15.432;2023-04-06T16:18:21;2.67;;;1.27;;
16115;SDS011;8162;47.104;15.432;2023-04-06T16:21:22;2.43;;;1.70;;
16115;SDS011;8162;47.104;15.432;2023-04-06T16:24:23;2.20;;;1.43;;
16115;SDS011;8162;47.104;15.432;2023-04-06T16:27:24;2.40;;;1.57;;
16115;SDS011;8162;47.104;15.432;2023-04-06T16:30:25;1.97;;;1.50;;
16115;SDS011;8162;47.104;15.432;2023-04-06T16:33:29;2.27;;;1.60;;
16115;SDS011;8162;47.104;15.432;2023-04-06T16:36:30;1.60;;;1.50;;
16115;SDS011;8162;47.104;15.432;2023-04-06T16:39:32;2.30;;;1.30;;
16115;SDS011;8162;47.104;15.432;2023-04-06T16:42:33;3.10;;;1.40;;
16115;SDS011;8162;47.104;15.432;2023-04-06T16:45:34;1.67;;;1.57;;
16115;SDS011;8162;47.104;15.432;2023-04-06T16:48:35;2.00;;;1.57;;
16115;SDS011;8162;47.104;15.432;2023-04-06T16:51:38;1.87;;;1.40;;
16115;SDS011;8162;47.104;15.432;2023-04-06T16:54:40;3.77;;;1.40;;
16115;SDS011;8162;47.104;15.432;2023-04-06T16:57:41;1.77;;;1.43;;
16115;SDS011;8162;47.104;15.432;2023-04-06T17:00:42;1.40;;;1.30;;
16115;SDS011;8162;47.104;15.432;2023-04-06T17:03:42;2.00;;;1.33;;
16115;SDS011;8162;47.104;15.432;2023-04-06T17:06:44;1.90;;;1.50;;
16115;SDS011;8162;47.104;15.432;2023-04-06T17:09:45;2.03;;;1.60;;
16115;SDS011;8162;47.104;15.432;2023-04-06T17:12:48;2.23;;;1.80;;
16115;SDS011;8162;47.104;15.432;2023-04-06T17:15:49;3.10;;;1.90;;
16115;SDS011;8162;47.104;15.432;2023-04-06T17:18:50;2.03;;;1.80;;
16115;SDS011;8162;47.104;15.432;2023-04-06T17:21:51;3.10;;;1.93;;
16115;SDS011;8162;47.104;15.432;2023-04-06T17:24:52;2.77;;;1.87;;
16115;SDS011;8162;47.104;15.432;2023-04-06T17:27:53;1.67;;;1.40;;
16115;SDS011;8162;47.104;15.432;2023-04-06T17:30:54;2.73;;;2.10;;
16115;SDS011;8162;47.104;15.432;2023-04-06T17:33:56;3.57;;;1.63;;
16115;SDS011;8162;47.104;15.432;2023-04-06T17:36:58;2.00;;;1.80;;
16115;SDS011;8162;47.104;15.432;2023-04-06T17:39:59;2.00;;;1.80;;
16115;SDS011;8162;47.104;15.432;2023-04-06T17:43:00;2.63;;;2.17;;
16115;SDS011;8162;47.104;15.432;2023-04-06T17:46:02;2.23;;;1.80;;
16115;SDS011;8162;47.104;15.432;2023-04-06T17:49:03;2.50;;;2.27;;
16115;SDS011;8162;47.104;15.432;2023-04-06T17:52:07;3.50;;;2.10;;
16115;SDS011;8162;47.104;15.432;2023-04-06T17:55:08;2.10;;;1.90;;
16115;SDS011;8162;47.104;15.432;2023-04-06T17:58:09;2.70;;;1.87;;
16115;SDS011;8162;47.104;15.432;2023-04-06T18:01:10;2.90;;;1.90;;
16115;SDS011;8162;47.104;15.432;2023-04-06T18:04:13;3.50;;;2.10;;
16115;SDS011;8162;47.104;15.432;2023-04-06T18:07:14;2.53;;;2.33;;
16115;SDS011;8162;47.104;15.432;2023-04-06T18:10:15;2.97;;;2.37;;
16115;SDS011;8162;47.104;15.432;2023-04-06T18:13:16;4.23;;;2.93;;